Time;durP1;ratioP1;P1;durP2;ratioP2;P2;SDS_P1;SDS_P2;PMS_P1;PMS_P2;Temp;Humidity;BMP_temperature;BMP_pressure;BME280_temperature;BME280_humidity;BME280_pressure;Samples;Min_cycle;Max_cycle;Signal;HPM_P1;HPM_P2
2024/01/20 00:00:56;;;;;;;53.40;25.77;;;;;;;5.22;66.33;102648.81;4988465;28;20054;-48
2024/01/20 00:03:21;;;;;;;56.13;26.48;;;;;;;5.24;65.64;102644.63;4990812;28;20042;-45
2024/01/20 00:05:46;;;;;;;54.00;25.35;;;;;;;5.06;66.71;102641.75;4990478;28;20042;-44
2024/01/20 00:08:12;;;;;;;52.83;26.23;;;;;;;4.90;67.42;102641.56;4990279;28;20106;-49
2024/01/20 00:10:37;;;;;;;51.70;25.67;;;;;;;5.25;65.60;102642.13;4991860;28;20042;-44
2024/01/20 00:13:03;;;;;;;53.38;24.88;;;;;;;5.18;65.79;102641.66;4996079;28;20401;-45
2024/01/20 00:15:28;;;;;;;49.05;25.08;;;;;;;5.17;65.64;102647.63;4995565;28;20133;-46
2024/01/20 00:17:53;;;;;;;53.63;24.83;;;;;;;5.30;65.21;102640.75;4995324;28;20026;-44
2024/01/20 00:20:19;;;;;;;49.63;24.85;;;;;;;5.09;65.26;102647.13;4993104;28;20065;-47
2024/01/20 00:22:45;;;;;;;53.40;25.13;;;;;;;5.10;66.02;102648.91;4993567;28;20034;-48
2024/01/20 00:25:11;;;;;;;53.40;26.02;;;;;;;5.14;65.34;102652.59;4993792;28;20588;-46
2024/01/20 00:27:36;;;;;;;50.88;24.77;;;;;;;4.97;66.21;102648.03;4993346;28;20035;-44
2024/01/20 00:30:02;;;;;;;55.30;25.73;;;;;;;4.80;67.30;102657.28;4994140;28;20042;-43
2024/01/20 00:32:28;;;;;;;52.42;25.90;;;;;;;5.01;66.25;102655.19;4976063;28;20125;-45
2024/01/20 00:34:54;;;;;;;53.17;26.10;;;;;;;5.06;66.32;102656.41;4993808;28;20571;-43
2024/01/20 00:37:19;;;;;;;52.08;24.80;;;;;;;5.05;65.83;102660.66;4993738;28;20039;-45
2024/01/20 00:39:45;;;;;;;53.92;25.55;;;;;;;5.14;65.02;102658.66;4992859;28;20128;-44
2024/01/20 00:42:10;;;;;;;53.38;25.23;;;;;;;5.05;65.89;102658.09;4993627;28;20081;-44
2024/01/20 00:44:39;;;;;;;51.15;24.73;;;;;;;5.09;65.33;102657.47;4992670;28;20030;-44
2024/01/20 00:47:05;;;;;;;50.38;24.73;;;;;;;4.87;65.75;102654.31;4991585;28;20038;-45
2024/01/20 00:49:30;;;;;;;52.10;25.35;;;;;;;4.84;66.29;102660.16;4990023;28;20465;-45
2024/01/20 00:51:56;;;;;;;53.92;24.83;;;;;;;5.09;65.11;102664.31;4993389;28;20046;-45
2024/01/20 00:54:21;;;;;;;52.22;24.70;;;;;;;4.94;65.12;102664.22;4993390;28;20050;-46
2024/01/20 00:56:46;;;;;;;53.08;24.80;;;;;;;4.56;66.03;102656.59;4992623;28;20045;-49
2024/01/20 00:59:12;;;;;;;55.20;25.50;;;;;;;4.83;65.39;102668.72;4992898;28;20041;-48
2024/01/20 01:01:37;;;;;;;57.28;25.35;;;;;;;4.63;65.39;102670.81;4992392;28;20062;-45
2024/01/20 01:04:02;;;;;;;57.30;25.50;;;;;;;4.56;66.69;102664.34;4992889;28;20065;-44
2024/01/20 01:06:28;;;;;;;54.92;26.50;;;;;;;4.41;67.24;102663.31;4991628;28;20034;-44
2024/01/20 01:08:53;;;;;;;54.92;26.20;;;;;;;4.61;66.46;102664.63;4992663;28;20201;-45
2024/01/20 01:11:18;;;;;;;57.13;25.92;;;;;;;4.33;67.30;102657.63;4991388;28;20406;-44
2024/01/20 01:13:44;;;;;;;57.00;27.08;;;;;;;4.44;67.14;102660.94;4992514;28;20093;-44
2024/01/20 01:16:09;;;;;;;55.92;25.05;;;;;;;4.38;67.37;102665.69;4992887;28;20087;-45
2024/01/20 01:18:34;;;;;;;56.33;25.75;;;;;;;4.45;66.80;102668.78;4991675;28;20034;-43
2024/01/20 01:21:00;;;;;;;58.60;26.17;;;;;;;4.30;67.09;102672.03;4993801;28;20030;-44
2024/01/20 01:23:25;;;;;;;56.90;26.35;;;;;;;4.43;66.63;102667.78;4991517;28;20038;-49
2024/01/20 01:25:52;;;;;;;59.72;26.88;;;;;;;4.24;67.68;102677.69;4992260;28;20030;-45
2024/01/20 01:28:17;;;;;;;55.83;26.00;;;;;;;4.66;66.18;102669.31;4992386;28;20136;-47
2024/01/20 01:30:42;;;;;;;55.00;25.65;;;;;;;4.74;65.81;102672.41;4991991;28;20481;-43
2024/01/20 01:33:07;;;;;;;55.55;26.90;;;;;;;4.73;65.22;102679.25;4992751;28;20030;-44
2024/01/20 01:35:33;;;;;;;54.22;25.70;;;;;;;4.62;65.99;102674.19;4996382;28;20046;-45
2024/01/20 01:37:58;;;;;;;57.95;25.60;;;;;;;4.74;65.01;102678.47;4992963;28;20054;-44
2024/01/20 01:40:25;;;;;;;58.42;25.88;;;;;;;4.58;65.72;102679.91;4992159;28;20069;-48
2024/01/20 01:42:56;;;;;;;53.10;26.20;;;;;;;4.56;65.56;102685.00;4992655;28;20034;-46
2024/01/20 01:45:22;;;;;;;54.83;25.00;;;;;;;4.19;67.17;102686.81;4992082;28;20038;-47
2024/01/20 01:47:48;;;;;;;57.30;25.65;;;;;;;4.32;66.53;102688.53;4990726;28;20041;-45
2024/01/20 01:50:13;;;;;;;54.85;24.92;;;;;;;4.58;65.89;102683.41;4992597;28;20034;-43
2024/01/20 01:52:40;;;;;;;58.15;25.20;;;;;;;4.39;65.97;102672.66;4991847;28;20048;-44
2024/01/20 01:55:06;;;;;;;56.70;26.25;;;;;;;4.40;66.25;102685.66;4973558;28;20052;-45
2024/01/20 01:57:33;;;;;;;62.20;26.98;;;;;;;4.33;66.06;102682.59;4992102;28;20451;-45
2024/01/20 01:59:58;;;;;;;59.85;26.08;;;;;;;4.28;67.15;102681.34;4992799;28;20034;-46
2024/01/20 02:02:24;;;;;;;61.85;26.58;;;;;;;4.44;66.17;102672.16;4995317;28;20125;-44
2024/01/20 02:04:49;;;;;;;61.10;25.88;;;;;;;4.35;66.45;102686.13;5000333;28;20519;-48
2024/01/20 02:07:15;;;;;;;57.55;26.20;;;;;;;4.14;67.79;102680.44;4999945;28;20045;-47
2024/01/20 02:09:41;;;;;;;62.30;26.38;;;;;;;4.29;66.77;102683.16;4999124;28;20519;-44
2024/01/20 02:12:07;;;;;;;57.90;26.70;;;;;;;4.24;68.11;102681.94;4990922;28;20038;-46
2024/01/20 02:14:34;;;;;;;59.22;26.00;;;;;;;4.27;67.32;102680.44;4989845;28;20038;-45
2024/01/20 02:16:59;;;;;;;57.58;26.60;;;;;;;4.45;66.34;102683.41;4989729;28;20389;-47
2024/01/20 02:19:24;;;;;;;67.10;27.33;;;;;;;4.16;67.29;102686.59;4992196;28;20081;-45
2024/01/20 02:21:50;;;;;;;58.72;25.55;;;;;;;4.10;67.18;102686.16;4991244;28;20050;-44
2024/01/20 02:24:15;;;;;;;60.50;26.20;;;;;;;4.26;67.27;102689.00;4990878;28;20162;-47
2024/01/20 02:26:40;;;;;;;61.10;26.77;;;;;;;4.28;66.38;102689.09;4990316;28;20532;-44
2024/01/20 02:29:06;;;;;;;59.95;26.25;;;;;;;3.86;69.25;102684.47;4991658;28;20058;-46
2024/01/20 02:31:31;;;;;;;59.97;26.17;;;;;;;4.19;67.82;102691.06;4991305;28;20146;-45
2024/01/20 02:33:56;;;;;;;61.95;26.27;;;;;;;4.47;66.61;102694.72;4990675;28;20084;-44
2024/01/20 02:36:22;;;;;;;63.20;26.00;;;;;;;4.35;68.29;102702.53;4990759;28;20092;-45
2024/01/20 02:38:48;;;;;;;58.60;25.67;;;;;;;4.12;68.33;102701.75;4991670;28;20053;-46
2024/01/20 02:41:13;;;;;;;62.28;26.20;;;;;;;4.48;66.15;102696.50;4991168;28;20042;-43
2024/01/20 02:43:38;;;;;;;67.18;26.48;;;;;;;3.95;67.32;102695.44;4990865;28;20042;-45
2024/01/20 02:46:04;;;;;;;61.17;26.20;;;;;;;4.23;67.11;102698.22;4990911;28;20042;-45
2024/01/20 02:48:30;;;;;;;58.63;25.42;;;;;;;3.95;69.06;102716.09;4990676;28;20509;-44
2024/01/20 02:50:55;;;;;;;60.75;26.38;;;;;;;4.00;69.10;102702.72;4991678;28;20393;-43
2024/01/20 02:53:20;;;;;;;61.03;25.48;;;;;;;4.53;66.82;102697.69;4991665;28;20550;-46
2024/01/20 02:55:46;;;;;;;61.63;24.80;;;;;;;4.27;67.50;102702.81;4991025;28;20041;-45
2024/01/20 02:58:11;;;;;;;60.75;24.15;;;;;;;4.14;68.15;102705.34;4991534;28;20057;-44
2024/01/20 03:00:36;;;;;;;62.22;25.45;;;;;;;4.30;67.61;102708.19;4992318;28;20040;-43
2024/01/20 03:03:02;;;;;;;53.55;23.95;;;;;;;4.45;67.25;102707.50;4992637;28;20032;-44
2024/01/20 03:05:27;;;;;;;59.08;24.95;;;;;;;4.35;67.20;102699.94;4990036;28;20093;-48
2024/01/20 03:07:52;;;;;;;56.25;23.92;;;;;;;4.50;67.06;102702.69;4990899;28;20038;-45
2024/01/20 03:10:18;;;;;;;53.70;24.08;;;;;;;4.54;66.36;102699.50;4991797;28;20140;-45
2024/01/20 03:12:43;;;;;;;58.97;23.42;;;;;;;4.72;66.23;102690.38;4991368;28;20554;-45
2024/01/20 03:15:09;;;;;;;52.05;23.20;;;;;;;4.73;64.73;102691.28;4991034;28;20030;-45
2024/01/20 03:17:35;;;;;;;50.83;22.80;;;;;;;4.57;65.32;102701.41;4989865;28;20043;-48
2024/01/20 03:20:00;;;;;;;54.25;23.70;;;;;;;4.53;65.95;102700.28;4990733;28;20049;-45
2024/01/20 03:22:25;;;;;;;58.53;23.70;;;;;;;4.48;66.11;102701.66;4991197;28;20046;-47
2024/01/20 03:24:51;;;;;;;54.72;23.65;;;;;;;4.24;66.97;102697.44;4991401;28;20022;-44
2024/01/20 03:27:19;;;;;;;62.15;23.48;;;;;;;4.38;66.21;102701.84;4990398;28;20121;-47
2024/01/20 03:29:44;;;;;;;54.55;23.75;;;;;;;4.24;66.60;102706.06;4989929;28;20038;-45
2024/01/20 03:32:10;;;;;;;56.72;22.38;;;;;;;4.42;66.39;102709.00;4990378;28;20030;-45
2024/01/20 03:34:36;;;;;;;55.38;22.13;;;;;;;4.44;65.71;102707.44;4990217;28;20173;-44
2024/01/20 03:37:02;;;;;;;54.10;22.30;;;;;;;4.08;67.08;102719.63;4989934;28;20117;-46
2024/01/20 03:39:27;;;;;;;52.25;22.55;;;;;;;4.39;66.38;102722.59;4989812;28;20042;-45
2024/01/20 03:41:52;;;;;;;55.45;22.48;;;;;;;4.15;66.87;102720.06;4988721;28;20169;-43
2024/01/20 03:44:18;;;;;;;53.55;21.95;;;;;;;4.36;66.99;102717.25;4990226;28;20129;-45
2024/01/20 03:46:43;;;;;;;54.17;23.05;;;;;;;4.27;66.17;102711.44;4991986;28;20031;-51
2024/01/20 03:49:08;;;;;;;53.35;21.98;;;;;;;3.97;67.35;102714.50;4994704;28;20141;-45
2024/01/20 03:51:34;;;;;;;55.60;22.13;;;;;;;4.13;67.63;102709.63;4992196;28;20038;-43
2024/01/20 03:54:01;;;;;;;59.22;22.92;;;;;;;4.09;68.26;102712.75;4994718;28;20038;-47
2024/01/20 03:56:27;;;;;;;56.03;22.65;;;;;;;4.12;67.79;102718.16;4993402;28;20041;-43
2024/01/20 03:58:52;;;;;;;53.95;22.48;;;;;;;4.16;67.76;102721.81;4994620;28;20042;-44
2024/01/20 04:01:17;;;;;;;54.85;20.73;;;;;;;4.17;67.50;102721.94;4994025;28;20038;-47
2024/01/20 04:03:43;;;;;;;54.67;22.23;;;;;;;4.38;66.77;102719.94;4994030;28;20125;-43
2024/01/20 04:06:08;;;;;;;51.35;21.80;;;;;;;4.34;66.71;102720.50;4994256;28;20026;-44
2024/01/20 04:08:33;;;;;;;54.58;22.58;;;;;;;4.25;66.18;102725.03;4994099;28;20117;-43
2024/01/20 04:10:59;;;;;;;52.25;22.25;;;;;;;4.16;67.40;102735.63;4993076;28;20126;-45
2024/01/20 04:13:24;;;;;;;51.72;21.75;;;;;;;4.31;66.72;102734.09;4994574;28;20125;-45
2024/01/20 04:15:50;;;;;;;52.08;20.98;;;;;;;4.17;66.57;102719.34;4993526;28;20085;-44
2024/01/20 04:18:15;;;;;;;49.08;21.38;;;;;;;4.32;66.04;102722.09;4993491;28;20041;-44
2024/01/20 04:20:41;;;;;;;46.95;20.85;;;;;;;4.25;66.40;102735.38;4993035;28;20035;-47
2024/01/20 04:23:06;;;;;;;51.28;21.65;;;;;;;4.24;66.32;102728.41;4994139;28;20026;-46
2024/01/20 04:25:32;;;;;;;53.30;20.60;;;;;;;4.23;66.30;102727.50;4993381;28;20836;-44
2024/01/20 04:27:57;;;;;;;52.60;21.75;;;;;;;4.24;65.82;102733.56;4993247;28;20034;-44
2024/01/20 04:30:22;;;;;;;49.80;20.65;;;;;;;4.11;65.72;102729.25;4993296;28;20064;-41
2024/01/20 04:32:47;;;;;;;47.70;20.30;;;;;;;4.24;65.71;102728.41;4993857;28;20378;-44
2024/01/20 04:35:13;;;;;;;48.15;20.15;;;;;;;4.24;65.88;102725.84;4996102;28;20134;-46
2024/01/20 04:37:39;;;;;;;47.20;20.23;;;;;;;4.19;66.72;102724.63;4993243;28;20504;-44
2024/01/20 04:40:05;;;;;;;49.97;20.38;;;;;;;4.14;66.15;102728.59;4992976;28;20053;-44
2024/01/20 04:42:30;;;;;;;45.75;19.77;;;;;;;4.25;66.31;102727.63;4992649;28;20038;-44
2024/01/20 04:44:56;;;;;;;48.65;21.10;;;;;;;4.11;67.26;102730.94;4993506;28;20125;-44
2024/01/20 04:47:21;;;;;;;50.33;21.13;;;;;;;4.09;67.09;102723.09;4992847;28;20039;-43
2024/01/20 04:49:49;;;;;;;51.05;21.25;;;;;;;4.00;66.85;102723.38;4992696;28;20039;-44
2024/01/20 04:52:14;;;;;;;49.05;21.15;;;;;;;4.03;67.27;102723.56;4993295;28;20037;-44
2024/01/20 04:54:40;;;;;;;55.97;22.60;;;;;;;4.04;67.48;102737.38;4992750;28;20113;-43
2024/01/20 04:57:05;;;;;;;52.88;21.48;;;;;;;4.22;66.87;102735.16;4991837;28;20508;-43
2024/01/20 04:59:30;;;;;;;54.80;21.40;;;;;;;4.09;67.17;102733.41;4992672;28;20569;-44
2024/01/20 05:01:56;;;;;;;50.60;21.27;;;;;;;3.83;68.94;102733.31;4993374;28;20042;-45
2024/01/20 05:04:21;;;;;;;52.50;21.70;;;;;;;4.14;67.38;102733.75;4991683;28;20038;-46
2024/01/20 05:06:48;;;;;;;49.78;21.23;;;;;;;3.87;68.54;102743.03;4980179;28;20031;-45
2024/01/20 05:09:13;;;;;;;49.95;21.13;;;;;;;4.15;67.50;102745.88;4973628;28;20038;-44
2024/01/20 05:11:39;;;;;;;49.55;21.48;;;;;;;4.20;66.88;102742.81;4974087;28;20110;-43
2024/01/20 05:14:04;;;;;;;52.08;21.55;;;;;;;4.12;67.31;102746.53;4974077;28;20516;-44
2024/01/20 05:16:29;;;;;;;50.72;21.77;;;;;;;3.92;67.78;102745.16;4972854;28;20069;-43
2024/01/20 05:18:55;;;;;;;48.38;20.85;;;;;;;4.06;66.79;102752.19;4984594;28;20117;-46
2024/01/20 05:21:22;;;;;;;57.83;20.95;;;;;;;4.08;67.40;102749.72;4975789;28;20066;-43
2024/01/20 05:23:47;;;;;;;53.55;21.27;;;;;;;4.12;67.12;102749.13;4972853;28;20030;-46
2024/01/20 05:26:12;;;;;;;49.42;20.73;;;;;;;3.86;67.39;102749.88;4972771;28;20128;-43
2024/01/20 05:28:38;;;;;;;51.08;19.80;;;;;;;3.88;68.47;102750.91;4972907;28;20535;-44
2024/01/20 05:31:03;;;;;;;53.53;20.30;;;;;;;3.85;67.63;102763.56;4985615;28;20034;-45
2024/01/20 05:33:28;;;;;;;51.28;20.55;;;;;;;3.81;67.99;102756.41;4975257;28;20035;-44
2024/01/20 05:35:56;;;;;;;54.80;20.92;;;;;;;3.82;68.04;102760.78;4973849;28;20055;-44
2024/01/20 05:38:21;;;;;;;51.22;20.15;;;;;;;4.06;67.66;102761.59;4968855;28;20035;-44
2024/01/20 05:40:46;;;;;;;51.75;19.73;;;;;;;3.98;67.19;102771.38;4953792;28;20042;-43
2024/01/20 05:43:12;;;;;;;48.40;19.05;;;;;;;4.12;66.75;102769.78;4954170;28;20043;-46
2024/01/20 05:45:37;;;;;;;47.17;17.98;;;;;;;4.07;66.99;102766.88;4954136;28;20031;-44
2024/01/20 05:48:02;;;;;;;47.67;18.70;;;;;;;3.91;67.51;102778.56;4956426;28;20039;-46
2024/01/20 05:50:28;;;;;;;46.38;18.75;;;;;;;3.78;68.18;102760.47;4956599;28;20063;-45
2024/01/20 05:52:53;;;;;;;51.75;19.88;;;;;;;3.73;69.10;102762.69;4958104;28;20046;-45
2024/01/20 05:55:18;;;;;;;46.05;18.88;;;;;;;3.73;68.81;102765.28;4958757;28;20031;-44
2024/01/20 05:57:44;;;;;;;44.47;17.83;;;;;;;3.57;68.82;102767.56;4959273;28;20118;-43
2024/01/20 06:00:09;;;;;;;46.70;18.58;;;;;;;3.74;68.90;102771.34;4958857;28;20059;-46
2024/01/20 06:02:36;;;;;;;46.05;18.02;;;;;;;3.54;69.59;102769.91;4957958;28;20047;-45
2024/01/20 06:05:01;;;;;;;46.28;17.58;;;;;;;3.58;68.40;102784.84;4956406;28;20035;-43
2024/01/20 06:07:27;;;;;;;48.72;17.50;;;;;;;3.49;69.47;102779.91;4954409;28;20486;-47
2024/01/20 06:09:52;;;;;;;48.42;18.77;;;;;;;3.93;68.74;102779.59;4955217;28;20122;-44
2024/01/20 06:12:18;;;;;;;48.00;17.77;;;;;;;3.89;68.51;102775.03;4958113;28;20067;-43
2024/01/20 06:14:44;;;;;;;42.17;17.25;;;;;;;3.87;68.51;102776.59;4959287;28;20097;-45
2024/01/20 06:17:09;;;;;;;44.95;16.60;;;;;;;3.84;68.81;102779.81;4959670;28;20042;-46
2024/01/20 06:19:34;;;;;;;44.55;16.90;;;;;;;3.84;68.72;102777.25;4958018;28;20159;-44
2024/01/20 06:22:00;;;;;;;43.28;17.30;;;;;;;3.81;68.80;102769.31;4954175;28;20039;-44
2024/01/20 06:24:25;;;;;;;40.85;17.00;;;;;;;3.87;68.43;102774.91;4952369;28;20047;-44
2024/01/20 06:26:50;;;;;;;44.17;17.02;;;;;;;3.81;68.00;102784.78;4953270;28;20364;-44
2024/01/20 06:29:16;;;;;;;39.55;16.85;;;;;;;3.91;68.26;102782.06;4953063;28;20059;-45
2024/01/20 06:31:41;;;;;;;44.90;16.40;;;;;;;4.08;67.10;102779.00;4952294;28;20043;-45
2024/01/20 06:34:06;;;;;;;40.50;16.05;;;;;;;3.74;68.19;102768.75;4952969;28;20047;-46
2024/01/20 06:36:32;;;;;;;39.47;15.48;;;;;;;3.78;68.57;102775.94;4952067;28;20031;-44
2024/01/20 06:38:57;;;;;;;43.67;15.68;;;;;;;3.52;68.46;102771.50;4952684;28;20071;-44
2024/01/20 06:41:22;;;;;;;41.88;16.58;;;;;;;3.87;67.97;102772.31;4951742;28;20509;-44
2024/01/20 06:43:48;;;;;;;41.22;15.52;;;;;;;3.89;68.49;102793.09;4962445;28;20161;-43
2024/01/20 06:46:13;;;;;;;46.25;16.67;;;;;;;3.85;67.69;102788.47;4971324;28;20512;-42
2024/01/20 06:48:39;;;;;;;44.42;16.15;;;;;;;3.98;67.77;102793.72;4971625;28;20066;-43
2024/01/20 06:51:06;;;;;;;40.45;15.80;;;;;;;4.01;67.60;102802.59;4970639;28;20500;-46
2024/01/20 06:53:32;;;;;;;46.10;16.30;;;;;;;3.76;67.86;102801.63;4971503;28;20486;-44
2024/01/20 06:55:58;;;;;;;44.47;16.40;;;;;;;3.58;69.25;102803.78;4971406;28;20038;-44
2024/01/20 06:58:24;;;;;;;38.15;15.77;;;;;;;3.88;67.93;102810.25;4971064;28;20038;-46
2024/01/20 07:00:50;;;;;;;43.33;16.20;;;;;;;3.68;68.67;102807.91;4971646;28;20035;-44
2024/01/20 07:03:16;;;;;;;38.90;15.38;;;;;;;3.52;69.26;102805.94;4971891;28;20046;-44
2024/01/20 07:05:41;;;;;;;43.53;15.70;;;;;;;3.80;67.68;102797.56;4970986;28;21757;-46
2024/01/20 07:08:07;;;;;;;40.42;15.73;;;;;;;3.86;68.01;102803.16;4972210;28;20038;-44
2024/01/20 07:10:32;;;;;;;42.53;15.35;;;;;;;3.83;67.83;102797.81;4971498;28;20109;-47
2024/01/20 07:12:58;;;;;;;38.78;16.27;;;;;;;3.77;67.35;102802.53;4971006;28;20168;-47
2024/01/20 07:15:24;;;;;;;43.88;15.20;;;;;;;3.50;68.29;102802.31;4970062;28;20043;-47
2024/01/20 07:17:49;;;;;;;39.33;15.02;;;;;;;3.92;68.25;102803.59;4975868;28;20046;-44
2024/01/20 07:20:14;;;;;;;41.58;16.70;;;;;;;3.82;68.42;102799.50;4971219;28;20615;-43
2024/01/20 07:22:41;;;;;;;38.25;14.68;;;;;;;3.59;69.26;102813.31;4971043;28;20058;-45
2024/01/20 07:25:08;;;;;;;44.70;15.15;;;;;;;3.55;69.73;102808.72;4971839;28;20075;-44
2024/01/20 07:27:33;;;;;;;42.70;16.48;;;;;;;3.58;69.13;102808.06;4970840;28;20046;-45
2024/01/20 07:29:59;;;;;;;39.97;15.40;;;;;;;3.48;70.41;102810.72;4971601;28;20049;-45
2024/01/20 07:32:25;;;;;;;44.53;16.10;;;;;;;3.92;68.90;102806.19;4971278;28;20045;-44
2024/01/20 07:34:50;;;;;;;40.03;15.90;;;;;;;4.26;66.96;102805.19;4971385;28;20117;-44
2024/01/20 07:37:15;;;;;;;41.10;15.68;;;;;;;4.07;68.56;102799.53;4971468;28;20218;-45
2024/01/20 07:39:40;;;;;;;40.20;15.75;;;;;;;4.17;67.86;102801.06;4970554;28;20101;-46
2024/01/20 07:42:06;;;;;;;38.15;14.90;;;;;;;4.27;68.26;102806.09;4970957;28;20035;-44
2024/01/20 07:44:31;;;;;;;39.70;16.17;;;;;;;4.03;68.15;102810.41;4971460;28;20034;-44
2024/01/20 07:46:56;;;;;;;40.28;15.93;;;;;;;4.03;68.50;102810.41;4971457;28;20486;-45
2024/01/20 07:49:22;;;;;;;40.80;15.13;;;;;;;4.13;67.53;102805.13;4971343;28;20053;-43
2024/01/20 07:51:47;;;;;;;45.08;16.55;;;;;;;4.61;66.69;102811.88;4970059;28;20290;-45
2024/01/20 07:54:13;;;;;;;41.15;15.93;;;;;;;4.30;67.43;102811.44;4970131;28;20097;-45
2024/01/20 07:56:39;;;;;;;45.47;16.55;;;;;;;4.44;66.77;102814.22;4969778;28;20050;-44
2024/01/20 07:59:04;;;;;;;42.40;16.20;;;;;;;4.53;66.29;102820.78;4969848;28;20039;-44
2024/01/20 08:01:29;;;;;;;42.17;16.20;;;;;;;4.45;66.02;102833.19;4971214;28;20053;-45
2024/01/20 08:03:55;;;;;;;35.80;14.55;;;;;;;4.33;67.00;102824.59;4971736;28;20067;-45
2024/01/20 08:06:20;;;;;;;38.22;15.25;;;;;;;3.96;68.52;102823.69;4969925;28;20039;-44
2024/01/20 08:08:45;;;;;;;42.83;15.93;;;;;;;4.36;66.41;102824.78;4972437;28;20046;-46
2024/01/20 08:11:12;;;;;;;38.50;15.23;;;;;;;4.33;66.70;102829.75;4972428;28;20027;-45
2024/01/20 08:13:37;;;;;;;41.33;15.40;;;;;;;4.30;66.55;102838.16;4971272;28;20038;-46
2024/01/20 08:16:03;;;;;;;36.33;15.20;;;;;;;3.94;67.62;102838.16;4970515;28;20090;-44
2024/01/20 08:18:28;;;;;;;39.38;15.57;;;;;;;4.12;67.53;102844.63;4970693;28;20119;-43
2024/01/20 08:20:54;;;;;;;39.30;15.20;;;;;;;4.25;67.45;102842.13;4971010;28;20498;-47
2024/01/20 08:23:19;;;;;;;34.35;15.05;;;;;;;4.18;67.89;102854.47;4970500;28;20043;-44
2024/01/20 08:25:45;;;;;;;39.22;15.18;;;;;;;4.35;67.31;102849.72;4968811;28;20031;-45
2024/01/20 08:28:10;;;;;;;39.10;15.73;;;;;;;4.03;68.87;102854.28;4970466;28;20031;-48
2024/01/20 08:30:35;;;;;;;41.03;15.15;;;;;;;4.14;67.98;102847.31;4970230;28;20066;-46
2024/01/20 08:33:01;;;;;;;39.22;15.73;;;;;;;4.07;67.88;102858.91;4971185;28;20054;-44
2024/01/20 08:35:26;;;;;;;37.45;15.60;;;;;;;4.57;66.66;102865.03;4974757;28;20038;-44
2024/01/20 08:37:52;;;;;;;40.47;16.40;;;;;;;4.38;66.29;102865.44;4975066;28;20093;-44
2024/01/20 08:40:17;;;;;;;39.72;16.02;;;;;;;4.07;67.88;102859.78;4974101;28;20098;-47
2024/01/20 08:42:43;;;;;;;43.13;16.98;;;;;;;3.66;69.28;102871.38;4973442;28;20097;-44
2024/01/20 08:45:08;;;;;;;48.38;19.08;;;;;;;4.03;69.33;102882.66;4974157;28;20038;-44
2024/01/20 08:47:34;;;;;;;42.58;18.02;;;;;;;4.04;69.40;102871.56;4973217;28;20045;-43
2024/01/20 08:49:59;;;;;;;43.22;18.08;;;;;;;4.49;66.87;102876.50;4973686;28;20042;-48
2024/01/20 08:52:24;;;;;;;47.10;19.48;;;;;;;4.75;66.53;102874.03;4972058;28;20218;-45
2024/01/20 08:54:50;;;;;;;44.83;18.67;;;;;;;4.13;67.78;102877.41;4973677;28;20110;-45
2024/01/20 08:57:15;;;;;;;49.67;18.58;;;;;;;4.39;67.70;102874.09;4973734;28;20062;-48
2024/01/20 08:59:41;;;;;;;46.25;17.75;;;;;;;4.06;68.63;102875.16;4973694;28;20190;-46
2024/01/20 09:02:06;;;;;;;53.17;18.80;;;;;;;4.74;67.21;102863.59;4974175;28;20039;-46
2024/01/20 09:04:32;;;;;;;41.05;17.17;;;;;;;4.42;66.95;102869.13;4973909;28;20034;-47
2024/01/20 09:06:57;;;;;;;44.92;17.80;;;;;;;4.74;66.16;102863.59;4974352;28;20508;-44
2024/01/20 09:09:22;;;;;;;39.63;17.42;;;;;;;4.83;66.73;102872.84;4973775;28;20114;-45
2024/01/20 09:11:48;;;;;;;42.20;17.63;;;;;;;4.65;66.60;102868.13;4974429;28;20046;-45
2024/01/20 09:14:14;;;;;;;42.80;16.75;;;;;;;4.87;65.75;102869.72;4975631;28;20038;-42
2024/01/20 09:16:39;;;;;;;35.92;16.05;;;;;;;4.68;66.78;102873.50;4973605;28;20322;-43
2024/01/20 09:19:05;;;;;;;41.70;17.33;;;;;;;4.97;65.80;102881.56;4974914;28;20027;-46
2024/01/20 09:21:30;;;;;;;38.00;16.60;;;;;;;5.11;65.36;102879.91;4974666;28;20047;-43
2024/01/20 09:23:55;;;;;;;40.20;16.98;;;;;;;5.18;64.30;102882.13;4974729;28;20113;-44
2024/01/20 09:26:21;;;;;;;39.80;16.52;;;;;;;5.29;64.23;102886.31;4974058;28;20042;-45
2024/01/20 09:28:46;;;;;;;37.83;15.55;;;;;;;5.02;64.17;102877.59;4976725;28;20066;-44
2024/01/20 09:31:12;;;;;;;40.15;16.13;;;;;;;5.34;64.73;102884.03;4974549;28;20409;-45
2024/01/20 09:33:37;;;;;;;36.15;15.70;;;;;;;5.07;64.57;102883.97;4973325;28;20058;-47
2024/01/20 09:36:03;;;;;;;34.58;13.65;;;;;;;5.33;64.07;102880.53;4972575;28;20464;-46
2024/01/20 09:38:29;;;;;;;32.40;14.07;;;;;;;5.63;63.59;102877.38;4972892;28;20039;-45
2024/01/20 09:40:56;;;;;;;32.85;13.90;;;;;;;5.47;63.59;102878.88;4973072;28;20058;-44
2024/01/20 09:43:22;;;;;;;31.67;12.75;;;;;;;5.89;61.96;102879.09;4973958;28;20039;-47
2024/01/20 09:45:48;;;;;;;30.48;13.25;;;;;;;6.13;60.85;102873.69;4975057;28;20054;-43
2024/01/20 09:48:13;;;;;;;30.00;12.20;;;;;;;6.16;60.66;102874.75;4979836;28;20030;-45
2024/01/20 09:50:39;;;;;;;27.75;11.95;;;;;;;5.52;62.33;102875.78;4977065;28;20038;-43
2024/01/20 09:53:23;;;;;;;31.13;11.73;;;;;;;5.52;63.01;102877.47;4974579;28;20031;-46
2024/01/20 09:55:48;;;;;;;30.35;11.68;;;;;;;5.64;62.39;102886.94;4954248;28;20129;-44
2024/01/20 09:58:16;;;;;;;28.77;11.90;;;;;;;5.63;62.28;102879.97;4954484;28;20039;-46
2024/01/20 10:00:42;;;;;;;27.15;11.15;;;;;;;5.61;61.58;102899.66;4951625;28;20043;-47
2024/01/20 10:03:09;;;;;;;25.50;10.68;;;;;;;5.51;62.19;102901.53;4966375;28;20054;-45
2024/01/20 10:05:35;;;;;;;27.52;10.73;;;;;;;5.62;62.64;102904.03;4971851;28;20042;-49
2024/01/20 10:08:01;;;;;;;25.40;10.43;;;;;;;5.54;62.59;102906.94;4972391;28;20039;-46
2024/01/20 10:10:26;;;;;;;26.45;11.02;;;;;;;5.70;61.75;102900.28;4971799;28;20410;-46
2024/01/20 10:12:54;;;;;;;24.63;10.23;;;;;;;5.53;62.41;102906.03;4972741;28;20482;-45
2024/01/20 10:15:28;;;;;;;27.20;10.98;;;;;;;5.07;63.61;102896.88;4972386;28;20047;-43
2024/01/20 10:17:55;;;;;;;25.13;10.67;;;;;;;5.64;61.90;102898.97;4953421;28;20042;-42
2024/01/20 10:20:25;;;;;;;23.65;10.48;;;;;;;5.79;62.41;102905.16;4952749;28;20042;-44
2024/01/20 10:22:51;;;;;;;26.00;10.77;;;;;;;6.14;60.78;102904.84;4952825;28;20039;-44
2024/01/20 10:25:20;;;;;;;23.17;10.05;;;;;;;5.96;61.25;102904.59;4952914;28;20028;-45
2024/01/20 10:27:47;;;;;;;25.35;10.55;;;;;;;6.06;60.96;102904.38;4951324;28;20761;-44
2024/01/20 10:30:15;;;;;;;24.77;9.93;;;;;;;6.06;60.65;102900.88;4952562;28;20039;-45
2024/01/20 10:32:41;;;;;;;23.15;10.20;;;;;;;5.82;61.21;102902.75;4970931;28;20051;-44
2024/01/20 10:35:08;;;;;;;24.48;10.15;;;;;;;6.33;60.33;102901.75;4972125;28;20113;-46
2024/01/20 10:37:37;;;;;;;25.60;9.88;;;;;;;5.93;59.95;102904.38;4971244;28;20042;-49
2024/01/20 10:40:04;;;;;;;25.40;10.32;;;;;;;5.76;61.21;102904.03;4971853;28;20455;-43
2024/01/20 10:42:30;;;;;;;23.48;10.10;;;;;;;6.30;60.04;102894.66;4971338;28;20066;-43
2024/01/20 10:45:07;;;;;;;21.27;9.98;;;;;;;6.44;59.04;102900.72;4971416;28;20037;-46
2024/01/20 10:47:38;;;;;;;25.90;10.93;;;;;;;5.68;59.97;102908.72;4970135;28;20409;-46
2024/01/20 10:50:04;;;;;;;26.45;11.00;;;;;;;5.73;61.06;102897.88;4972381;28;20043;-45
2024/01/20 10:52:35;;;;;;;22.92;10.02;;;;;;;6.36;58.69;102902.81;4972026;28;20441;-45
2024/01/20 10:55:05;;;;;;;20.55;9.88;;;;;;;6.68;58.28;102886.66;4970612;28;20041;-46
2024/01/20 10:57:31;;;;;;;24.30;10.48;;;;;;;6.74;58.05;102896.50;4971090;28;20403;-46
2024/01/20 10:59:58;;;;;;;24.88;10.60;;;;;;;6.49;57.25;102899.28;4971556;28;20461;-50
2024/01/20 11:02:25;;;;;;;23.90;10.48;;;;;;;6.47;57.79;102906.06;4971213;28;20062;-44
2024/01/20 11:04:51;;;;;;;25.90;10.18;;;;;;;6.53;57.55;102896.06;4971543;28;20098;-48
2024/01/20 11:07:24;;;;;;;20.13;9.48;;;;;;;6.58;57.51;102904.16;4971345;28;20397;-44
2024/01/20 11:09:59;;;;;;;18.65;8.98;;;;;;;6.12;58.40;102890.91;4951653;28;20663;-45